EST,Max TemperatureF,Mean TemperatureF,Min TemperatureF,Max Dew PointF,MeanDew PointF,Min DewpointF,Max Humidity, Mean Humidity, Min Humidity, Max Sea Level PressureIn, Mean Sea Level PressureIn, Min Sea Level PressureIn, Max VisibilityMiles, Mean VisibilityMiles, Min VisibilityMiles, Max Wind SpeedMPH, Mean Wind SpeedMPH, Max Gust SpeedMPH,PrecipitationIn, CloudCover, Events, WindDirDegrees
2012-12-1,39,36,32,38,30,22,96,80,64,30.55,30.48,30.43,10,7,1,10,8,,0.00,8,,67
2012-12-2,48,44,39,46,42,38,100,92,80,30.41,30.25,30.11,6,2,0,7,2,,0.09,6,Fog-Rain,166
2012-12-3,57,48,39,47,43,38,100,82,58,30.27,30.19,30.09,10,7,3,10,3,,0.00,1,Fog,285
2012-12-4,59,49,39,52,47,38,100,92,78,30.28,30.18,29.98,10,3,0,9,3,,0.09,5,Fog-Rain,145
2012-12-5,54,44,33,51,33,19,96,63,43,30.21,30.04,29.90,10,9,4,25,12,36,0.02,3,,301
2012-12-6,39,32,26,19,16,13,69,55,36,30.36,30.30,30.21,10,10,10,12,7,,0.00,0,,336
2012-12-7,42,34,27,40,33,17,97,86,66,30.28,30.15,30.03,10,5,1,6,2,,0.15,6,Rain,244
2012-12-8,48,44,41,46,44,40,97,93,87,30.01,29.93,29.85,3,2,0,5,1,,0.24,8,Fog-Rain,315
2012-12-9,46,42,39,45,39,32,100,85,67,30.25,30.15,30.01,10,6,1,13,7,22,0.33,7,Rain,25
2012-12-10,57,50,43,56,50,41,100,95,90,29.99,29.70,29.55,6,2,0,7,3,,0.10,8,Fog-Rain,187
2012-12-11,51,45,37,47,32,24,89,67,50,30.19,29.92,29.60,10,10,10,15,10,18,0.02,6,Rain,319
2012-12-12,41,36,30,24,23,21,73,60,47,30.44,30.35,30.19,10,10,10,10,5,,0.00,0,,320
2012-12-13,44,37,28,25,23,22,81,63,43,30.47,30.41,30.32,10,10,10,10,4,,0.00,0,,312
2012-12-14,48,38,27,27,24,21,89,60,36,30.31,30.22,30.14,10,10,6,10,4,,0.00,0,,282
2012-12-15,45,36,28,31,28,24,88,71,49,30.33,30.26,30.21,10,10,7,8,3,,0.00,0,,346
2012-12-16,42,40,39,39,37,33,93,88,73,30.22,30.07,29.92,10,6,1,16,8,25,0.18,8,Rain,82
2012-12-17,44,40,37,43,38,36,97,94,89,29.91,29.85,29.65,10,4,0,13,9,23,0.26,8,Rain,63
2012-12-18,52,48,43,45,42,32,97,85,65,29.60,29.51,29.45,10,6,1,21,8,33,0.76,6,Rain,298
2012-12-19,46,39,32,30,26,23,73,55,44,30.11,29.82,29.59,10,10,10,23,17,33,0.00,0,,306
2012-12-20,43,34,27,39,28,21,86,71,55,30.20,30.10,29.86,10,10,9,13,5,21,0.02,4,Rain,99
2012-12-21,55,46,36,54,39,26,96,79,62,29.76,29.28,29.10,10,7,1,33,16,47,1.39,7,Rain,199
2012-12-22,36,34,33,30,23,17,85,63,48,29.79,29.53,29.30,10,8,2,32,16,46,0.00,6,Snow,290
2012-12-23,39,36,32,23,19,15,57,50,41,29.94,29.89,29.80,10,10,10,23,13,34,0.00,2,,270
2012-12-24,37,32,27,30,23,18,93,69,50,30.09,30.01,29.93,10,7,1,9,5,,0.09,3,Snow,34
2012-12-25,37,32,28,32,28,21,96,81,70,30.25,30.06,29.92,10,8,1,17,8,17,0.04,5,Rain,349
2012-12-26,35,30,24,32,23,15,89,76,54,30.28,30.05,29.54,10,7,1,26,11,45,0.45,5,Rain-Snow,50
2012-12-27,37,32,28,36,30,19,93,83,66,29.80,29.49,29.27,10,6,2,29,19,39,0.42,7,Rain-Snow,335
2012-12-28,36,32,26,23,21,17,81,66,57,30.08,29.99,29.81,10,10,10,23,15,32,0.00,1,,313
2012-12-29,33,28,24,30,26,19,93,84,75,30.04,29.71,29.48,10,6,0,18,5,24,0.18,7,Fog-Snow,15
2012-12-30,32,29,26,24,16,13,79,60,48,30.14,29.89,29.57,10,10,9,34,21,46,0.00,1,,305
2012-12-31,37,31,25,21,18,13,64,56,50,30.16,30.04,29.87,10,10,10,10,7,18,0.00,3,,260